Time;durP1;ratioP1;P1;durP2;ratioP2;P2;SDS_P1;SDS_P2;PMS_P1;PMS_P2;Temp;Humidity;BMP_temperature;BMP_pressure;BME280_temperature;BME280_humidity;BME280_pressure;Samples;Min_cycle;Max_cycle;Signal;HPM_P1;HPM_P2
2021/09/24 00:00:32;;;;;;;7.28;3.60;;;;;;;16.63;52.61;100006.09;4440843;32;32803;-85
2021/09/24 00:03:03;;;;;;;6.18;4.00;;;;;;;16.59;52.52;99994.88;4453940;32;34088;-85
2021/09/24 00:05:32;;;;;;;6.80;3.90;;;;;;;16.55;52.59;99998.59;4440421;32;33056;-85
2021/09/24 00:08:00;;;;;;;8.18;4.07;;;;;;;16.43;52.88;99986.09;4440802;32;34565;-85
2021/09/24 00:10:28;;;;;;;10.15;4.37;;;;;;;16.00;54.29;99971.56;4428181;32;32965;-85
2021/09/24 00:12:56;;;;;;;7.90;3.87;;;;;;;16.42;53.16;99971.25;4439926;32;33671;-85
2021/09/24 00:15:24;;;;;;;8.68;4.20;;;;;;;16.40;53.17;99970.50;4440347;32;33390;-86
2021/09/24 00:17:52;;;;;;;9.85;3.97;;;;;;;16.47;52.98;99980.63;4428232;32;33651;-86
2021/09/24 00:20:21;;;;;;;8.35;3.80;;;;;;;16.51;52.99;99981.28;4440365;32;33863;-86
2021/09/24 00:22:49;;;;;;;7.47;4.22;;;;;;;16.56;52.76;99978.44;4440296;32;33372;-84
2021/09/24 00:25:18;;;;;;;7.68;4.37;;;;;;;16.54;52.82;99986.41;4430761;32;33566;-84
2021/09/24 00:27:45;;;;;;;10.50;4.78;;;;;;;16.58;52.78;99985.31;4432240;32;32683;-85
2021/09/24 00:30:14;;;;;;;9.32;4.93;;;;;;;16.63;52.64;99982.44;4428418;32;32910;-85
2021/09/24 00:32:43;;;;;;;10.68;4.57;;;;;;;16.47;53.14;99977.13;4415476;32;34127;-84
2021/09/24 00:35:13;;;;;;;8.73;4.50;;;;;;;16.65;52.58;99968.28;4440709;32;33136;-84
2021/09/24 00:37:40;;;;;;;12.37;4.35;;;;;;;16.63;52.71;99967.53;4453959;32;34148;-86
2021/09/24 00:40:10;;;;;;;10.73;3.80;;;;;;;16.23;53.78;99964.31;4427381;32;32762;-85
2021/09/24 00:42:38;;;;;;;9.00;3.95;;;;;;;16.34;53.56;99959.34;4439679;32;34339;-85
2021/09/24 00:45:07;;;;;;;7.18;3.78;;;;;;;16.45;53.24;99944.81;4440148;32;33548;-85
2021/09/24 00:47:36;;;;;;;9.10;4.97;;;;;;;16.50;53.10;99954.16;4440972;32;34327;-85
2021/09/24 00:50:05;;;;;;;9.75;4.22;;;;;;;16.52;52.88;99952.28;4427743;32;33250;-84
2021/09/24 00:52:33;;;;;;;9.18;3.92;;;;;;;16.36;53.14;99949.59;4440746;32;34329;-86
2021/09/24 00:55:03;;;;;;;8.90;4.10;;;;;;;16.38;53.13;99944.28;4440783;32;33914;-85
2021/09/24 00:57:32;;;;;;;10.15;5.03;;;;;;;16.29;53.22;99944.75;4439940;32;33315;-85
2021/09/24 01:00:00;;;;;;;7.47;5.00;;;;;;;16.25;53.28;99944.06;4440016;32;33793;-86
2021/09/24 01:02:29;;;;;;;11.07;5.30;;;;;;;15.96;53.90;99945.53;4440286;32;32905;-87
2021/09/24 01:04:59;;;;;;;10.25;5.25;;;;;;;15.79;54.40;99943.72;4440840;32;33922;-85
2021/09/24 01:07:26;;;;;;;11.32;5.35;;;;;;;15.81;54.25;99941.91;4426678;32;32980;-87
2021/09/24 01:09:55;;;;;;;8.32;4.45;;;;;;;15.99;53.84;99943.62;4440807;32;34431;-86
2021/09/24 01:12:23;;;;;;;10.23;5.03;;;;;;;15.92;54.17;99938.72;4440025;32;33106;-85
2021/09/24 01:15:00;;;;;;;9.50;5.07;;;;;;;15.51;55.55;99943.25;4440803;32;34260;-85
2021/09/24 01:17:28;;;;;;;8.15;4.10;;;;;;;15.45;55.82;99935.69;4440254;32;33845;-85
2021/09/24 01:19:57;;;;;;;10.23;4.97;;;;;;;15.29;55.68;99943.47;4427617;32;32473;-86
2021/09/24 01:22:25;;;;;;;10.23;4.47;;;;;;;15.18;56.19;99940.47;4439695;32;33461;-86
2021/09/24 01:24:54;;;;;;;7.07;4.20;;;;;;;15.16;55.90;99944.97;4440033;32;33301;-85
2021/09/24 01:27:22;;;;;;;11.40;4.50;;;;;;;14.95;56.15;99925.81;4440089;32;32935;-85
2021/09/24 01:29:55;;;;;;;9.07;5.40;;;;;;;15.01;56.17;99929.00;4440178;32;32463;-86
2021/09/24 01:32:24;;;;;;;9.70;4.68;;;;;;;15.13;56.05;99924.97;4427653;32;32813;-85
2021/09/24 01:35:04;;;;;;;6.37;4.15;;;;;;;15.33;55.52;99903.00;4442605;32;34022;-85
2021/09/24 01:37:35;;;;;;;9.38;4.95;;;;;;;15.11;56.37;99891.84;4440868;32;33661;-84
2021/09/24 01:40:08;;;;;;;7.12;4.45;;;;;;;14.69;57.42;99896.38;4439921;32;32482;-86
2021/09/24 01:42:37;;;;;;;7.45;4.43;;;;;;;14.84;56.50;99895.69;4440274;32;34712;-86
2021/09/24 01:45:05;;;;;;;9.60;5.22;;;;;;;15.05;55.33;99890.38;4440267;32;33400;-85
2021/09/24 01:47:34;;;;;;;9.50;5.00;;;;;;;14.73;56.40;99889.22;4440410;32;34266;-86
2021/09/24 01:50:07;;;;;;;9.73;5.53;;;;;;;14.61;57.30;99880.09;4428371;32;32458;-86
2021/09/24 01:52:36;;;;;;;18.75;7.78;;;;;;;14.89;55.44;99879.75;4426789;32;33096;-85
2021/09/24 01:55:06;;;;;;;14.68;8.00;;;;;;;14.87;54.89;99879.78;4440246;32;34279;-85
2021/09/24 01:57:36;;;;;;;16.20;8.30;;;;;;;14.86;54.96;99878.09;4439606;32;32758;-85
2021/09/24 02:00:06;;;;;;;23.45;10.48;;;;;;;14.86;54.93;99877.22;4439472;32;32689;-86
2021/09/24 02:02:35;;;;;;;18.75;8.60;;;;;;;14.68;55.38;99869.31;4439820;32;34753;-85
2021/09/24 02:05:06;;;;;;;13.80;8.52;;;;;;;14.39;56.36;99867.12;4439996;32;35301;-86
2021/09/24 02:07:35;;;;;;;19.55;8.90;;;;;;;14.55;55.54;99868.12;4439710;32;33061;-85
2021/09/24 02:10:05;;;;;;;13.48;7.57;;;;;;;14.66;55.44;99867.66;4439556;32;33641;-86
2021/09/24 02:12:33;;;;;;;12.90;7.43;;;;;;;14.45;55.83;99872.94;4439488;32;33084;-85
2021/09/24 02:15:03;;;;;;;15.88;7.25;;;;;;;14.22;56.55;99867.88;4439034;32;34568;-86
2021/09/24 02:17:32;;;;;;;20.80;8.50;;;;;;;14.05;57.56;99874.69;4439594;32;33295;-87
2021/09/24 02:20:00;;;;;;;18.48;8.90;;;;;;;14.25;57.20;99868.56;4426172;32;32377;-85
2021/09/24 02:22:28;;;;;;;14.10;6.90;;;;;;;14.25;57.07;99879.06;4439398;32;33403;-86
2021/09/24 02:24:57;;;;;;;15.98;8.07;;;;;;;14.12;57.63;99870.91;4414066;32;34054;-86
2021/09/24 02:27:24;;;;;;;13.07;6.30;;;;;;;14.09;57.86;99859.69;4439052;32;33240;-85
2021/09/24 02:29:53;;;;;;;14.50;6.57;;;;;;;14.07;57.90;99872.84;4439133;32;33474;-85
2021/09/24 02:32:22;;;;;;;12.10;6.00;;;;;;;14.02;58.46;99870.44;4452360;32;34179;-85
2021/09/24 02:34:51;;;;;;;11.55;7.10;;;;;;;14.50;57.05;99870.09;4438966;32;33281;-87
2021/09/24 02:37:19;;;;;;;12.23;5.55;;;;;;;14.24;58.08;99877.38;4439488;32;34600;-85
2021/09/24 02:39:48;;;;;;;11.70;5.82;;;;;;;14.36;56.98;99881.22;4439551;32;33493;-86
2021/09/24 02:42:16;;;;;;;13.20;5.93;;;;;;;14.33;56.48;99881.34;4426020;32;34414;-86
2021/09/24 02:44:44;;;;;;;13.68;5.50;;;;;;;14.43;55.43;99876.56;4439096;32;34356;-87
2021/09/24 02:47:14;;;;;;;9.48;4.55;;;;;;;14.52;55.21;99882.22;4426915;32;32853;-85
2021/09/24 02:49:44;;;;;;;10.60;4.55;;;;;;;14.36;55.46;99874.19;4425803;32;33926;-86
2021/09/24 02:52:12;;;;;;;6.90;3.78;;;;;;;14.10;56.13;99874.50;4452290;32;33812;-85
2021/09/24 02:54:40;;;;;;;7.93;3.90;;;;;;;13.97;56.84;99869.81;4425842;32;33438;-85
2021/09/24 02:57:08;;;;;;;28.60;7.80;;;;;;;14.11;56.94;99869.19;4426765;32;32909;-86
2021/09/24 02:59:36;;;;;;;8.80;4.28;;;;;;;13.76;58.29;99871.56;4426436;32;32372;-85
2021/09/24 03:02:05;;;;;;;6.60;3.65;;;;;;;13.97;57.31;99869.81;4426120;32;32980;-86
2021/09/24 03:04:33;;;;;;;6.10;3.83;;;;;;;13.84;57.62;99866.84;4438824;32;33204;-85
2021/09/24 03:07:01;;;;;;;8.55;3.67;;;;;;;14.02;56.73;99875.66;4425958;32;33831;-85
2021/09/24 03:09:29;;;;;;;8.90;3.97;;;;;;;13.72;57.60;99876.97;4413316;32;33059;-85
2021/09/24 03:11:57;;;;;;;8.15;4.40;;;;;;;13.69;57.86;99876.19;4426378;32;33437;-85
2021/09/24 03:14:25;;;;;;;8.63;3.85;;;;;;;14.07;56.62;99874.62;4438982;32;33292;-86
2021/09/24 03:16:54;;;;;;;7.35;3.67;;;;;;;13.97;57.04;99868.94;4438915;32;33652;-85
2021/09/24 03:19:23;;;;;;;9.27;4.82;;;;;;;13.60;58.15;99867.84;4426188;32;32796;-85
2021/09/24 03:21:51;;;;;;;8.93;4.53;;;;;;;13.68;58.14;99866.63;4438183;32;32588;-85
2021/09/24 03:24:20;;;;;;;7.65;3.97;;;;;;;13.84;57.48;99871.22;4426735;32;33416;-84
2021/09/24 03:26:49;;;;;;;8.65;4.18;;;;;;;13.80;56.82;99864.41;4438650;32;33231;-85
2021/09/24 03:29:18;;;;;;;10.48;4.80;;;;;;;13.80;56.65;99851.31;4426850;32;34573;-85
2021/09/24 03:31:46;;;;;;;10.88;4.72;;;;;;;13.68;57.08;99861.41;4427794;32;33179;-85
2021/09/24 03:34:15;;;;;;;13.85;4.57;;;;;;;13.49;57.98;99863.06;4440722;32;34811;-85
2021/09/24 03:36:42;;;;;;;7.93;4.35;;;;;;;13.44;58.51;99855.44;4431107;32;34232;-84
2021/09/24 03:39:13;;;;;;;7.35;3.60;;;;;;;13.71;57.33;99844.72;4432391;32;32686;-84
2021/09/24 03:41:42;;;;;;;11.60;4.15;;;;;;;13.92;56.59;99853.44;4441169;32;32894;-85
2021/09/24 03:44:11;;;;;;;21.87;6.37;;;;;;;14.09;55.73;99852.66;4441192;32;35172;-85
2021/09/24 03:46:39;;;;;;;23.55;6.20;;;;;;;14.06;55.74;99859.84;4440237;32;33604;-84
2021/09/24 03:49:07;;;;;;;19.87;5.22;;;;;;;14.24;55.34;99868.62;4428585;32;32519;-85
2021/09/24 03:51:35;;;;;;;12.98;4.20;;;;;;;13.97;55.84;99861.94;4440628;32;33804;-85
2021/09/24 03:54:03;;;;;;;14.52;5.05;;;;;;;13.85;56.17;99851.97;4427448;32;33303;-85
2021/09/24 03:56:31;;;;;;;8.13;4.15;;;;;;;13.85;56.20;99857.22;4440793;32;33513;-85
2021/09/24 03:58:59;;;;;;;9.38;3.55;;;;;;;14.01;55.67;99860.88;4440644;32;34119;-85
2021/09/24 04:01:28;;;;;;;10.80;4.30;;;;;;;13.95;55.85;99853.28;4441671;32;34610;-85
2021/09/24 04:03:57;;;;;;;9.70;4.93;;;;;;;14.07;55.66;99861.53;4427920;32;33624;-86
2021/09/24 04:06:25;;;;;;;11.65;4.68;;;;;;;14.01;55.78;99858.28;4440702;32;34654;-85
2021/09/24 04:08:53;;;;;;;9.85;4.80;;;;;;;13.76;56.93;99849.75;4440337;32;32363;-84
2021/09/24 04:11:22;;;;;;;9.43;4.47;;;;;;;13.95;56.78;99853.28;4441437;32;34185;-84
2021/09/24 04:13:51;;;;;;;8.68;4.45;;;;;;;13.98;56.82;99858.38;4440086;32;33587;-84
2021/09/24 04:16:20;;;;;;;11.38;5.20;;;;;;;13.93;56.81;99856.87;4440503;32;34296;-85
2021/09/24 04:18:48;;;;;;;9.60;4.50;;;;;;;14.07;56.45;99864.16;4415155;32;32067;-84
2021/09/24 04:21:16;;;;;;;9.88;4.65;;;;;;;13.87;57.51;99858.00;4427901;32;33354;-85
2021/09/24 04:23:44;;;;;;;16.67;10.50;;;;;;;13.94;57.58;99862.06;4440543;32;33121;-86
2021/09/24 04:26:12;;;;;;;13.13;6.90;;;;;;;13.92;57.51;99855.19;4440629;32;33327;-86
2021/09/24 04:28:41;;;;;;;11.07;4.65;;;;;;;13.98;57.15;99852.31;4440612;32;33952;-86
2021/09/24 04:31:08;;;;;;;11.52;4.47;;;;;;;13.82;57.79;99857.34;4440263;32;33008;-86
2021/09/24 04:33:37;;;;;;;9.70;4.65;;;;;;;13.75;57.84;99864.63;4440791;32;35032;-86
2021/09/24 04:36:06;;;;;;;10.57;6.78;;;;;;;13.42;58.36;99866.88;4440744;32;34067;-85
2021/09/24 04:38:33;;;;;;;7.05;4.53;;;;;;;13.67;57.59;99878.03;4440525;32;33575;-85
2021/09/24 04:41:02;;;;;;;10.55;4.70;;;;;;;13.48;57.70;99875.31;4453103;32;33142;-86
2021/09/24 04:43:30;;;;;;;8.88;4.87;;;;;;;13.72;56.79;99869.13;4427570;32;33684;-85
2021/09/24 04:45:59;;;;;;;11.30;5.00;;;;;;;13.57;57.33;99874.06;4441284;32;32847;-85
2021/09/24 04:48:31;;;;;;;10.50;4.82;;;;;;;13.26;58.54;99872.69;4440485;32;33940;-86
2021/09/24 04:51:00;;;;;;;11.05;4.95;;;;;;;13.61;57.67;99877.44;4441115;32;34927;-87
2021/09/24 04:53:30;;;;;;;9.10;4.65;;;;;;;13.34;58.55;99881.06;4430806;32;33523;-87
2021/09/24 04:55:58;;;;;;;10.20;4.40;;;;;;;13.60;58.14;99889.69;4431146;32;32743;-87
2021/09/24 04:58:27;;;;;;;10.70;4.65;;;;;;;13.62;58.15;99876.50;4431272;32;32900;-87
2021/09/24 05:00:55;;;;;;;13.18;4.97;;;;;;;13.84;57.58;99879.06;4443025;32;33449;-87
2021/09/24 05:03:23;;;;;;;12.82;5.03;;;;;;;13.87;57.53;99873.72;4443728;32;34678;-86
2021/09/24 05:05:50;;;;;;;10.43;4.57;;;;;;;14.01;57.38;99875.72;4427885;32;33238;-87
2021/09/24 05:08:18;;;;;;;8.57;4.20;;;;;;;14.12;57.42;99868.28;4415644;32;33163;-87
2021/09/24 05:10:46;;;;;;;14.73;5.80;;;;;;;14.30;57.19;99868.38;4428109;32;32865;-86
2021/09/24 05:13:14;;;;;;;12.05;4.32;;;;;;;13.85;58.52;99862.44;4427547;32;33949;-87
2021/09/24 05:15:43;;;;;;;8.65;4.75;;;;;;;14.09;57.53;99864.94;4428163;32;32614;-86
2021/09/24 05:18:11;;;;;;;13.82;5.47;;;;;;;14.33;56.92;99863.00;4428081;32;32700;-87
2021/09/24 05:20:39;;;;;;;12.25;4.68;;;;;;;14.30;57.21;99869.22;4440278;32;34472;-87
2021/09/24 05:23:07;;;;;;;12.27;5.20;;;;;;;14.31;57.76;99870.94;4427751;32;35123;-87
2021/09/24 05:25:35;;;;;;;11.95;5.68;;;;;;;14.19;59.01;99866.25;4415780;32;33025;-88
2021/09/24 05:28:04;;;;;;;8.27;4.85;;;;;;;14.53;58.19;99864.72;4427409;32;32872;-87
2021/09/24 05:30:34;;;;;;;11.63;4.60;;;;;;;14.58;58.27;99867.97;4427883;32;33579;-87
2021/09/24 05:33:02;;;;;;;10.73;4.68;;;;;;;14.48;58.73;99862.31;4427550;32;33353;-86
2021/09/24 05:35:30;;;;;;;13.15;5.32;;;;;;;14.39;59.27;99865.34;4427415;32;33905;-86
2021/09/24 05:37:59;;;;;;;9.82;4.72;;;;;;;14.62;58.88;99864.28;4440668;32;32981;-86
2021/09/24 05:40:27;;;;;;;11.80;4.95;;;;;;;14.86;58.18;99862.38;4427613;32;34093;-86
2021/09/24 05:42:56;;;;;;;13.52;8.93;;;;;;;15.04;57.71;99867.66;4427454;32;34645;-85
2021/09/24 05:45:24;;;;;;;14.68;7.28;;;;;;;15.13;57.44;99866.34;4440635;26;33836;-83
2021/09/24 05:47:53;;;;;;;13.90;7.85;;;;;;;15.13;57.31;99877.72;4411591;32;33966;-82
2021/09/24 05:50:21;;;;;;;23.02;12.82;;;;;;;15.29;57.10;99876.97;4411218;32;34088;-81
2021/09/24 05:52:51;;;;;;;12.90;5.75;;;;;;;15.56;56.48;99872.16;4410911;32;33149;-83
2021/09/24 05:55:22;;;;;;;14.73;5.62;;;;;;;15.73;56.17;99878.34;4410248;32;34330;-82
2021/09/24 05:57:52;;;;;;;13.82;4.93;;;;;;;15.95;55.81;99878.97;4410930;32;32385;-81
2021/09/24 06:00:21;;;;;;;10.93;4.90;;;;;;;15.97;55.88;99882.38;4410453;32;33957;-82
2021/09/24 06:02:51;;;;;;;15.87;6.00;;;;;;;16.04;55.88;99880.28;4397366;32;33518;-81
2021/09/24 06:05:20;;;;;;;10.73;4.65;;;;;;;16.17;56.02;99880.53;4410655;32;32976;-81
2021/09/24 06:07:48;;;;;;;12.77;5.43;;;;;;;16.30;55.79;99880.72;4406656;32;33049;-81
2021/09/24 06:10:18;;;;;;;27.58;14.77;;;;;;;16.58;55.32;99882.75;4405032;32;33715;-83
2021/09/24 06:12:48;;;;;;;9.10;5.80;;;;;;;16.59;55.45;99875.69;4405980;32;32872;-82
2021/09/24 06:15:19;;;;;;;11.85;4.68;;;;;;;17.01;54.57;99872.50;4405954;32;34734;-82
2021/09/24 06:17:48;;;;;;;12.82;4.25;;;;;;;17.28;54.17;99884.22;4394027;32;32679;-82
2021/09/24 06:20:18;;;;;;;7.40;4.30;;;;;;;17.39;53.77;99878.34;4395599;32;33684;-84
2021/09/24 06:22:47;;;;;;;6.85;3.92;;;;;;;17.49;53.43;99874.25;4407243;32;33948;-85
2021/09/24 06:25:16;;;;;;;9.77;4.45;;;;;;;17.58;53.31;99872.88;4393495;32;33163;-86
2021/09/24 06:27:49;;;;;;;10.43;4.55;;;;;;;17.68;52.75;99882.78;4381050;32;32500;-85
2021/09/24 06:30:20;;;;;;;8.23;3.85;;;;;;;17.68;52.66;99885.44;4380616;32;33115;-80
2021/09/24 06:32:49;;;;;;;;;;;;;;;17.83;52.56;99888.09;4394792;32;34194;-80
2021/09/24 06:35:17;;;;;;;9.13;4.15;;;;;;;17.89;52.26;99900.06;4406293;32;34401;-81
2021/09/24 06:37:45;;;;;;;8.65;3.80;;;;;;;18.16;51.75;99901.09;4392687;32;33309;-80
2021/09/24 06:40:15;;;;;;;9.82;4.12;;;;;;;18.27;51.52;99903.09;4395238;32;33592;-81
2021/09/24 06:42:43;;;;;;;8.07;3.72;;;;;;;18.33;51.24;99908.00;4393172;32;33827;-81
2021/09/24 06:45:13;;;;;;;11.75;6.32;;;;;;;18.30;51.30;99910.81;4404226;32;34526;-81
2021/09/24 06:47:43;;;;;;;9.13;4.43;;;;;;;18.34;51.29;99911.47;4390214;32;32881;-80
2021/09/24 06:50:12;;;;;;;11.23;4.50;;;;;;;18.73;50.38;99911.75;4390624;32;33732;-82
2021/09/24 06:52:41;;;;;;;8.00;4.18;;;;;;;18.86;50.14;99915.31;4391608;32;34560;-82
2021/09/24 06:55:11;;;;;;;6.97;4.20;;;;;;;18.52;50.80;99914.75;4392722;32;34518;-82
2021/09/24 06:57:39;;;;;;;8.50;4.00;;;;;;;18.44;51.37;99909.13;4392229;32;32713;-82
2021/09/24 07:00:08;;;;;;;8.40;4.18;;;;;;;18.36;51.69;99912.22;4391480;32;34895;-82
2021/09/24 07:02:38;;;;;;;7.82;4.15;;;;;;;18.77;50.55;99915.91;4379292;32;34185;-82
2021/09/24 07:05:07;;;;;;;7.07;3.95;;;;;;;18.50;51.29;99916.66;4380662;32;34228;-88
2021/09/24 07:07:44;;;;;;;7.35;3.90;;;;;;;18.29;51.92;99924.09;4382617;32;32404;-82
2021/09/24 07:10:13;;;;;;;6.87;3.70;;;;;;;18.58;51.20;99927.59;4381626;32;33001;-81
2021/09/24 07:12:42;;;;;;;8.45;4.07;;;;;;;18.72;50.97;99928.53;4393410;32;34274;-81
2021/09/24 07:15:10;;;;;;;12.98;8.30;;;;;;;18.74;50.88;99931.94;4380876;32;32828;-84
2021/09/24 07:17:38;;;;;;;10.15;5.40;;;;;;;18.81;50.77;99935.88;4380653;32;33516;-82
2021/09/24 07:20:07;;;;;;;9.85;3.92;;;;;;;18.77;50.79;99942.28;4380861;32;34266;-84
2021/09/24 07:22:35;;;;;;;8.90;4.18;;;;;;;19.05;50.16;99936.16;4378436;32;33665;-83
2021/09/24 07:25:04;;;;;;;8.57;4.32;;;;;;;19.13;50.04;99940.94;4390398;32;33183;-82
2021/09/24 07:27:33;;;;;;;8.10;3.37;;;;;;;19.11;50.12;99948.13;4391377;32;32371;-81
2021/09/24 07:30:03;;;;;;;8.73;5.30;;;;;;;19.07;50.22;99941.34;4379028;32;33918;-81
2021/09/24 07:32:31;;;;;;;8.23;4.10;;;;;;;19.18;50.08;99941.50;4379792;32;34140;-89
2021/09/24 07:35:06;;;;;;;7.78;4.15;;;;;;;18.81;50.94;99946.44;4392323;32;32533;-91
2021/09/24 07:37:53;;;;;;;7.85;4.82;;;;;;;18.56;51.76;99947.09;4382240;32;32374;-89
2021/09/24 07:40:22;;;;;;;12.15;4.00;;;;;;;18.99;50.58;99957.69;4392338;32;32911;-90
2021/09/24 07:42:51;;;;;;;11.50;4.78;;;;;;;19.01;50.73;99958.41;4379780;32;33527;-91
2021/09/24 07:45:19;;;;;;;8.73;4.25;;;;;;;19.03;50.59;99961.81;4381812;32;33314;-91
2021/09/24 07:48:09;;;;;;;9.35;4.10;;;;;;;19.30;49.99;99955.72;4363869;32;32358;-86
2021/09/24 07:50:38;;;;;;;16.83;4.62;;;;;;;19.60;49.32;99949.41;4350804;32;33478;-86
2021/09/24 07:53:07;;;;;;;6.72;3.83;;;;;;;19.31;49.98;99950.34;4338464;32;33187;-86
2021/09/24 07:55:35;;;;;;;8.77;4.00;;;;;;;19.51;49.73;99961.44;4351091;32;33667;-86
2021/09/24 07:58:04;;;;;;;9.50;3.72;;;;;;;19.84;48.86;99945.19;4363368;32;32511;-86
2021/09/24 08:00:32;;;;;;;55.22;8.50;;;;;;;19.97;48.78;99939.94;4338439;32;33113;-86
2021/09/24 08:03:00;;;;;;;14.10;4.57;;;;;;;20.07;48.63;99960.47;4362856;32;33556;-86
2021/09/24 08:05:30;;;;;;;67.97;8.70;;;;;;;20.51;47.67;99943.34;4350946;32;32647;-86
2021/09/24 08:07:58;;;;;;;112.90;13.45;;;;;;;20.78;47.07;99950.34;4350194;32;33769;-86
2021/09/24 08:10:28;;;;;;;15.93;4.47;;;;;;;20.72;47.18;99961.38;4362778;32;33931;-86
2021/09/24 08:12:56;;;;;;;75.93;9.77;;;;;;;20.49;47.67;99950.56;4362933;32;33842;-87
2021/09/24 08:15:24;;;;;;;23.42;4.45;;;;;;;20.76;46.71;99963.69;4350404;32;34400;-86
2021/09/24 08:17:54;;;;;;;18.92;4.15;;;;;;;20.74;46.65;99967.41;4362637;32;33911;-86
2021/09/24 08:20:22;;;;;;;12.70;4.20;;;;;;;20.97;46.27;99960.50;4352221;32;33237;-85
2021/09/24 08:22:50;;;;;;;9.85;3.92;;;;;;;20.74;46.89;99956.81;4353299;32;33119;-85
2021/09/24 08:25:19;;;;;;;21.23;4.55;;;;;;;20.84;46.65;99953.41;4364472;32;34652;-86
2021/09/24 08:27:48;;;;;;;40.47;5.95;;;;;;;20.68;46.83;99958.06;4362914;32;33575;-85
2021/09/24 08:30:20;;;;;;;20.40;3.95;;;;;;;20.70;46.67;99958.81;4362707;32;33536;-85
2021/09/24 08:32:48;;;;;;;26.37;5.45;;;;;;;21.03;46.08;99954.75;4363847;32;34764;-84
2021/09/24 08:35:17;;;;;;;11.25;4.47;;;;;;;20.99;46.15;99959.44;4350454;32;32993;-85
2021/09/24 08:37:47;;;;;;;7.75;3.25;;;;;;;21.14;45.62;99952.19;4350538;32;33187;-85
2021/09/24 08:40:18;;;;;;;8.60;3.90;;;;;;;20.85;46.41;99956.91;4362294;32;33684;-85
2021/09/24 08:42:46;;;;;;;11.77;4.62;;;;;;;20.84;46.57;99955.22;4350043;32;34081;-85
2021/09/24 08:45:23;;;;;;;9.40;4.00;;;;;;;20.72;46.91;99961.38;4363020;32;33491;-86
2021/09/24 08:47:55;;;;;;;9.35;4.07;;;;;;;20.49;47.54;99963.78;4363217;32;33552;-85
2021/09/24 08:50:25;;;;;;;6.12;3.60;;;;;;;20.57;47.30;99958.81;4350063;32;33771;-85
2021/09/24 08:52:55;;;;;;;6.95;3.67;;;;;;;20.63;47.08;99962.81;4350009;32;34535;-85
2021/09/24 08:55:23;;;;;;;6.90;3.70;;;;;;;20.28;48.02;99974.88;4349967;32;32868;-85
2021/09/24 08:57:51;;;;;;;7.72;3.47;;;;;;;20.54;47.39;99972.25;4349908;32;32886;-86
2021/09/24 09:00:21;;;;;;;6.30;3.20;;;;;;;20.53;47.39;99957.34;4350131;32;33492;-86
2021/09/24 09:02:53;;;;;;;7.62;3.53;;;;;;;20.68;47.17;99958.91;4350056;32;33666;-85
2021/09/24 09:05:22;;;;;;;10.38;4.35;;;;;;;20.56;47.44;99961.56;4362146;32;34107;-85
2021/09/24 09:08:04;;;;;;;7.20;3.72;;;;;;;19.92;49.05;99968.47;4350072;32;32524;-86
2021/09/24 09:10:38;;;;;;;6.78;3.40;;;;;;;20.36;47.69;99963.78;4349812;32;33170;-86
2021/09/24 09:13:10;;;;;;;9.75;3.72;;;;;;;20.32;47.94;99968.44;4349890;32;34248;-86
2021/09/24 09:15:39;;;;;;;7.50;3.72;;;;;;;20.38;47.80;99980.38;4362623;32;34545;-86
2021/09/24 09:18:16;;;;;;;8.27;3.97;;;;;;;20.62;47.11;99977.87;4362651;32;34375;-87
2021/09/24 09:20:47;;;;;;;6.43;3.17;;;;;;;20.83;46.70;99972.06;4362559;32;34003;-87
2021/09/24 09:23:16;;;;;;;9.20;3.70;;;;;;;20.87;46.63;99973.53;4362274;32;34245;-86
2021/09/24 09:25:47;;;;;;;9.30;4.25;;;;;;;20.96;46.60;99969.41;4349940;32;32597;-86
2021/09/24 09:28:39;;;;;;;8.20;3.62;;;;;;;21.08;46.14;99975.63;4351632;32;33335;-86
2021/09/24 09:31:23;;;;;;;6.82;3.92;;;;;;;21.09;46.22;99978.16;4337798;32;33068;-86
2021/09/24 09:33:53;;;;;;;7.45;3.47;;;;;;;20.85;46.68;99984.22;4361838;32;33005;-87
2021/09/24 09:36:37;;;;;;;11.38;3.87;;;;;;;20.74;46.96;99985.94;4349594;32;33028;-86
2021/09/24 09:39:13;;;;;;;7.50;3.45;;;;;;;20.86;46.62;99985.09;4350726;32;32550;-86
2021/09/24 09:41:49;;;;;;;12.00;4.22;;;;;;;20.75;46.65;99984.97;4362765;32;33029;-86
2021/09/24 09:44:30;;;;;;;7.05;3.90;;;;;;;20.79;46.60;99975.88;4349808;32;34334;-87
2021/09/24 09:46:58;;;;;;;11.32;3.55;;;;;;;20.98;46.20;99980.72;4349137;32;33081;-87
2021/09/24 09:49:29;;;;;;;6.47;3.62;;;;;;;20.98;46.18;99973.62;4339061;32;32403;-87
2021/09/24 09:52:09;;;;;;;8.23;3.60;;;;;;;20.88;46.48;99975.22;4365216;32;33213;-86
2021/09/24 09:54:38;;;;;;;6.37;3.65;;;;;;;20.95;46.39;99975.63;4352295;32;33394;-86
2021/09/24 09:57:11;;;;;;;11.00;3.45;;;;;;;20.95;46.06;99973.81;4353123;32;32929;-85
2021/09/24 09:59:41;;;;;;;6.68;3.20;;;;;;;20.92;45.64;99968.75;4352902;32;32773;-86
2021/09/24 10:02:11;;;;;;;9.13;3.03;;;;;;;20.70;46.12;99972.06;4351813;32;33290;-85
2021/09/24 10:04:52;;;;;;;7.68;3.60;;;;;;;21.04;45.43;99971.50;4378218;32;33591;-85
2021/09/24 10:07:24;;;;;;;12.07;4.22;;;;;;;21.01;45.49;99981.34;4351917;32;34240;-84
2021/09/24 10:10:15;;;;;;;8.48;6.25;;;;;;;21.26;44.71;99976.09;4363900;32;32879;-85
2021/09/24 10:12:44;;;;;;;11.75;4.25;;;;;;;21.03;45.27;99973.28;4362901;32;34328;-85
2021/09/24 10:15:14;;;;;;;7.68;3.70;;;;;;;21.04;45.29;99990.88;4338536;32;34138;-86
2021/09/24 10:17:43;;;;;;;8.20;3.72;;;;;;;20.73;46.06;99984.22;4352426;32;34908;-86
2021/09/24 10:20:13;;;;;;;6.40;3.10;;;;;;;21.11;45.28;99991.28;4364093;32;32694;-85
2021/09/24 10:22:40;;;;;;;6.97;3.12;;;;;;;20.99;45.54;99988.56;4351695;32;34930;-85
2021/09/24 10:25:09;;;;;;;6.85;3.37;;;;;;;20.93;45.66;99981.03;4349158;32;34818;-86
2021/09/24 10:27:44;;;;;;;9.13;6.75;;;;;;;20.92;45.72;99978.50;4349905;32;34295;-86
2021/09/24 10:30:25;;;;;;;6.30;2.92;;;;;;;20.93;45.86;99974.91;4352268;32;32940;-87
2021/09/24 10:32:59;;;;;;;5.97;3.30;;;;;;;20.93;45.95;99973.09;4352371;32;34363;-85
2021/09/24 10:35:46;;;;;;;8.40;3.65;;;;;;;20.99;45.77;99974.47;4351837;32;33662;-85
2021/09/24 10:38:20;;;;;;;8.52;3.37;;;;;;;20.91;45.92;99977.66;4352334;32;34441;-85
2021/09/24 10:41:03;;;;;;;10.40;3.67;;;;;;;20.95;45.87;99983.59;4353324;32;33757;-85
2021/09/24 10:43:52;;;;;;;6.65;4.10;;;;;;;20.81;46.12;99982.75;4353403;32;33237;-86
2021/09/24 10:46:24;;;;;;;9.32;3.70;;;;;;;20.86;46.03;99979.81;4353578;32;33334;-86
2021/09/24 10:49:11;;;;;;;4.72;2.75;;;;;;;20.33;47.11;99985.16;4378147;32;34369;-86
2021/09/24 10:51:45;;;;;;;10.35;3.53;;;;;;;20.68;46.32;99985.37;4353449;32;32780;-86
2021/09/24 10:54:20;;;;;;;5.43;3.05;;;;;;;20.85;46.03;99986.03;4353458;32;33072;-86
2021/09/24 10:57:02;;;;;;;8.18;4.10;;;;;;;20.95;45.67;99987.06;4353867;32;33075;-85
2021/09/24 10:59:33;;;;;;;9.50;3.95;;;;;;;20.81;46.08;99979.28;4353143;32;33962;-86
2021/09/24 11:02:39;;;;;;;8.13;3.78;;;;;;;20.96;46.02;99983.47;4365831;32;33674;-86
2021/09/24 11:05:08;;;;;;;8.55;3.50;;;;;;;20.64;46.60;99991.84;4353776;32;34526;-86
2021/09/24 11:07:36;;;;;;;9.32;3.40;;;;;;;20.71;46.47;99986.16;4353240;32;34445;-85
2021/09/24 11:10:05;;;;;;;9.48;3.85;;;;;;;20.62;46.71;99995.53;4367144;32;33797;-86
2021/09/24 11:12:34;;;;;;;7.53;3.72;;;;;;;21.11;45.56;99984.22;4366025;32;33475;-85
2021/09/24 11:15:04;;;;;;;6.15;3.17;;;;;;;21.33;45.02;99986.16;4365990;32;32949;-86
2021/09/24 11:17:43;;;;;;;8.77;3.43;;;;;;;21.48;44.82;99986.00;4378419;32;33237;-85
2021/09/24 11:20:36;;;;;;;7.78;3.35;;;;;;;21.66;44.25;99986.50;4354463;32;33954;-85
2021/09/24 11:23:35;;;;;;;6.60;2.97;;;;;;;21.80;43.89;99980.16;4360289;32;32397;-85
2021/09/24 11:26:13;;;;;;;8.13;3.50;;;;;;;21.82;43.60;99979.09;4329822;32;33378;-85
2021/09/24 11:28:43;;;;;;;7.70;3.00;;;;;;;21.85;43.58;99967.41;4341100;32;33755;-86
2021/09/24 11:31:15;;;;;;;9.60;3.37;;;;;;;22.07;43.13;99984.34;4354674;32;34095;-85
2021/09/24 11:33:46;;;;;;;5.25;2.92;;;;;;;22.07;43.01;99971.97;4354009;32;32478;-85
2021/09/24 11:36:59;;;;;;;5.97;2.90;;;;;;;22.41;42.27;99963.25;4357797;32;33081;-86
2021/09/24 11:39:27;;;;;;;;;;;;;;;22.67;41.89;99966.56;4365121;32;34656;-85
2021/09/24 11:42:10;;;;;;;8.13;3.47;;;;;;;22.72;41.46;99968.84;4367292;32;34435;-87
2021/09/24 11:44:46;;;;;;;6.93;2.92;;;;;;;22.95;40.98;99970.53;4365716;32;33590;-85